Juan de Fuca Strait - east entrance: Past 24 Hour Conditions

 

La Perouse Bank - 46206

10:00 PM PDT 18 October 2017Buoy position: 48.83N 126.0W
Disclaimer

This table is a summary of hourly weather conditions for the past 24 hours.
Please note that these observations might not always be representative of weather conditions over their associated marine area.

Date / Time
(PDT)
Wind(knots) Wave height(m) Wave period(s) Pressure(kPa) Air tempC) Water tempC)
18 October 2017
22:00 SSE 10 gust 14 4.3 10.0 99.7 12 11
21:00 S 10 gust 12 3.8 10.0 99.7 12 11
20:00 SSE 12 gust 14 3.9 11.0 99.7 12 11
19:00 S 14 gust 18 3.8 10.0 99.7 13 11
18:00 S 14 gust 19 3.9 11.0 99.7 13 12
17:00 S 16 gust 18 3.8 10.0 99.7 13 12
16:00 SSW 16 gust 21 3.8 11.0 99.7 13 12
15:00 SSW 16 gust 19 3.7 10.0 99.6 13 12
14:00 SE 12 gust 16 3.8 9.0 99.6 12 12
13:00 SSE 4 gust 8 4.0 9.0 99.7 12 11
12:00 S 8 gust 10 4.1 8.0 99.8 12 11
11:00 SW 10 gust 12 4.3 9.0 99.8 12 10
10:00 SW 18 gust 23 4.3 8.0 99.7 13 10
9:00 SSE 29 gust 37 4.1 7.0 99.7 12 10
8:00 ESE 29 gust 37 3.4 7.0 99.9 10 11
7:00 ESE 31 gust 39 2.9 6.0 100.2 10 11
6:00 ESE 31 gust 41 2.4 5.0 100.4 10 11
5:00 ESE 27 gust 35 2.2 5.0 100.6 10 12
4:00 ESE 25 gust 33 2.0 10.0 100.8 10 12
3:00 ESE 25 gust 31 1.9 10.0 101.0 10 12
2:00 ESE 21 gust 25 1.9 10.0 101.3 10 12
1:00 ESE 16 gust 19 2.2 10.0 101.4 11 12
0:00 ESE 14 gust 18 2.4 10.0 101.5 11 12
17 October 2017
23:00 SE 12 gust 14 2.6 9.0 101.7 11 12
22:00 SSE 12 gust 16 2.9 10.0 101.8 11 12

Zoom-in to make a selection

Map of Pacific - Georgia Basin marine weather areas Tsawwassen Ferry Terminal Sentry Shoal - 46131 Halibut Bank - 46146 La Perouse Bank - 46206 Discovery Island Esquimalt Harbour Kelp Reefs Malahat Race Rocks Lightstation Saturna Island Sheringham Point University of Victoria Victoria Gonzales Victoria Int'l Airport Ballenas Islands Campbell River Airport Comox Airport Entrance Island Fanny Island Nanaimo Airport Sisters Islets Estevan Point Tofino Airport Grief Point Powell River Airport Sechelt Point Atkinson Sand Heads Lightstation Vancouver Harbour Vancouver Int'l Airport West Vancouver Port Alberni Howe Sound - Pam Rocks Squamish Airport
Legend:
buoy Buoy
land station Land Station

Pacific - Georgia Basin Area

Another Region

What we are doing

Features

Summer 2017: Significant weather across Canada

By analyzing weather events, ECCC is collecting more information as to how our climate is changing.

Date modified: